sensor_id;sensor_type;location;lat;lon;timestamp;P1;durP1;ratioP1;P2;durP2;ratioP2
40204;SDS011;26963;42.666;23.366;2023-04-24T00:00:00;13.38;;;7.35;;
40204;SDS011;26963;42.666;23.366;2023-04-24T00:02:28;14.13;;;7.65;;
40204;SDS011;26963;42.666;23.366;2023-04-24T00:04:53;11.98;;;6.78;;
40204;SDS011;26963;42.666;23.366;2023-04-24T00:07:19;8.68;;;6.03;;
40204;SDS011;26963;42.666;23.366;2023-04-24T00:09:45;8.32;;;5.68;;
40204;SDS011;26963;42.666;23.366;2023-04-24T00:12:11;10.32;;;4.80;;
40204;SDS011;26963;42.666;23.366;2023-04-24T00:14:36;7.15;;;4.65;;
40204;SDS011;26963;42.666;23.366;2023-04-24T00:17:02;8.85;;;4.57;;
40204;SDS011;26963;42.666;23.366;2023-04-24T00:19:28;6.60;;;4.15;;
40204;SDS011;26963;42.666;23.366;2023-04-24T00:21:54;8.15;;;4.32;;
40204;SDS011;26963;42.666;23.366;2023-04-24T00:24:20;5.93;;;4.03;;
40204;SDS011;26963;42.666;23.366;2023-04-24T00:26:46;5.18;;;4.00;;
40204;SDS011;26963;42.666;23.366;2023-04-24T00:29:13;9.90;;;4.60;;
40204;SDS011;26963;42.666;23.366;2023-04-24T00:31:39;7.90;;;4.32;;
40204;SDS011;26963;42.666;23.366;2023-04-24T00:34:05;6.80;;;4.70;;
40204;SDS011;26963;42.666;23.366;2023-04-24T00:36:30;7.18;;;4.55;;
40204;SDS011;26963;42.666;23.366;2023-04-24T00:38:57;9.70;;;4.97;;
40204;SDS011;26963;42.666;23.366;2023-04-24T00:41:24;8.88;;;5.55;;
40204;SDS011;26963;42.666;23.366;2023-04-24T00:43:50;7.57;;;5.40;;
40204;SDS011;26963;42.666;23.366;2023-04-24T00:46:16;10.85;;;5.72;;
40204;SDS011;26963;42.666;23.366;2023-04-24T00:48:42;10.20;;;5.35;;
40204;SDS011;26963;42.666;23.366;2023-04-24T00:51:08;9.13;;;5.07;;
40204;SDS011;26963;42.666;23.366;2023-04-24T00:53:34;7.65;;;4.82;;
40204;SDS011;26963;42.666;23.366;2023-04-24T00:56:00;7.72;;;5.47;;
40204;SDS011;26963;42.666;23.366;2023-04-24T00:58:30;7.95;;;5.13;;
40204;SDS011;26963;42.666;23.366;2023-04-24T01:00:56;10.65;;;5.53;;
40204;SDS011;26963;42.666;23.366;2023-04-24T01:03:30;9.73;;;5.53;;
40204;SDS011;26963;42.666;23.366;2023-04-24T01:05:56;10.95;;;5.50;;
40204;SDS011;26963;42.666;23.366;2023-04-24T01:08:26;9.88;;;5.38;;
40204;SDS011;26963;42.666;23.366;2023-04-24T01:10:53;12.00;;;5.85;;
40204;SDS011;26963;42.666;23.366;2023-04-24T01:13:19;6.72;;;4.90;;
40204;SDS011;26963;42.666;23.366;2023-04-24T01:15:46;7.28;;;5.30;;
40204;SDS011;26963;42.666;23.366;2023-04-24T01:18:12;11.65;;;5.70;;
40204;SDS011;26963;42.666;23.366;2023-04-24T01:20:39;9.13;;;5.35;;
40204;SDS011;26963;42.666;23.366;2023-04-24T01:23:06;8.52;;;4.82;;
40204;SDS011;26963;42.666;23.366;2023-04-24T01:25:32;8.90;;;4.85;;
40204;SDS011;26963;42.666;23.366;2023-04-24T01:27:59;7.55;;;4.60;;
40204;SDS011;26963;42.666;23.366;2023-04-24T01:30:25;7.53;;;4.70;;
40204;SDS011;26963;42.666;23.366;2023-04-24T01:32:51;8.15;;;4.80;;
40204;SDS011;26963;42.666;23.366;2023-04-24T01:35:17;9.05;;;4.75;;
40204;SDS011;26963;42.666;23.366;2023-04-24T01:37:43;7.97;;;5.45;;
40204;SDS011;26963;42.666;23.366;2023-04-24T01:40:09;9.15;;;5.75;;
40204;SDS011;26963;42.666;23.366;2023-04-24T01:42:35;7.38;;;5.13;;
40204;SDS011;26963;42.666;23.366;2023-04-24T01:45:01;8.23;;;4.72;;
40204;SDS011;26963;42.666;23.366;2023-04-24T01:47:28;10.27;;;5.68;;
40204;SDS011;26963;42.666;23.366;2023-04-24T01:49:55;9.00;;;5.35;;
40204;SDS011;26963;42.666;23.366;2023-04-24T01:52:21;8.70;;;5.70;;
40204;SDS011;26963;42.666;23.366;2023-04-24T01:54:47;9.60;;;5.55;;
40204;SDS011;26963;42.666;23.366;2023-04-24T01:57:13;7.68;;;5.57;;
40204;SDS011;26963;42.666;23.366;2023-04-24T01:59:39;9.63;;;5.50;;
40204;SDS011;26963;42.666;23.366;2023-04-24T02:02:05;10.85;;;5.20;;
40204;SDS011;26963;42.666;23.366;2023-04-24T02:04:31;7.63;;;4.90;;
40204;SDS011;26963;42.666;23.366;2023-04-24T02:06:59;9.38;;;5.65;;
40204;SDS011;26963;42.666;23.366;2023-04-24T02:09:25;6.95;;;5.38;;
40204;SDS011;26963;42.666;23.366;2023-04-24T02:11:50;10.20;;;6.13;;
40204;SDS011;26963;42.666;23.366;2023-04-24T02:14:16;9.55;;;5.60;;
40204;SDS011;26963;42.666;23.366;2023-04-24T02:16:41;9.77;;;5.72;;
40204;SDS011;26963;42.666;23.366;2023-04-24T02:19:07;9.05;;;5.82;;
40204;SDS011;26963;42.666;23.366;2023-04-24T02:21:33;9.15;;;5.78;;
40204;SDS011;26963;42.666;23.366;2023-04-24T02:23:58;11.55;;;5.82;;
40204;SDS011;26963;42.666;23.366;2023-04-24T02:26:24;8.23;;;5.88;;
40204;SDS011;26963;42.666;23.366;2023-04-24T02:28:50;9.32;;;5.85;;
40204;SDS011;26963;42.666;23.366;2023-04-24T02:31:15;9.30;;;6.30;;
40204;SDS011;26963;42.666;23.366;2023-04-24T02:33:41;9.65;;;5.55;;
40204;SDS011;26963;42.666;23.366;2023-04-24T02:36:07;10.35;;;5.75;;
40204;SDS011;26963;42.666;23.366;2023-04-24T02:38:32;9.10;;;5.95;;
40204;SDS011;26963;42.666;23.366;2023-04-24T02:40:58;7.57;;;5.78;;
40204;SDS011;26963;42.666;23.366;2023-04-24T02:43:23;9.10;;;5.65;;
40204;SDS011;26963;42.666;23.366;2023-04-24T02:45:49;10.35;;;5.35;;
40204;SDS011;26963;42.666;23.366;2023-04-24T02:48:14;9.63;;;5.95;;
40204;SDS011;26963;42.666;23.366;2023-04-24T02:50:40;8.98;;;5.97;;
40204;SDS011;26963;42.666;23.366;2023-04-24T02:53:06;10.82;;;6.25;;
40204;SDS011;26963;42.666;23.366;2023-04-24T02:55:31;7.80;;;6.45;;
40204;SDS011;26963;42.666;23.366;2023-04-24T02:58:00;10.95;;;6.68;;
40204;SDS011;26963;42.666;23.366;2023-04-24T03:00:25;9.88;;;6.97;;
40204;SDS011;26963;42.666;23.366;2023-04-24T03:02:51;11.85;;;6.97;;
40204;SDS011;26963;42.666;23.366;2023-04-24T03:05:16;13.38;;;6.68;;
40204;SDS011;26963;42.666;23.366;2023-04-24T03:07:42;8.80;;;6.75;;
40204;SDS011;26963;42.666;23.366;2023-04-24T03:10:07;10.30;;;6.43;;
40204;SDS011;26963;42.666;23.366;2023-04-24T03:12:33;10.48;;;6.55;;
40204;SDS011;26963;42.666;23.366;2023-04-24T03:14:59;10.98;;;7.00;;
40204;SDS011;26963;42.666;23.366;2023-04-24T03:17:25;10.68;;;6.88;;
40204;SDS011;26963;42.666;23.366;2023-04-24T03:19:50;10.20;;;6.72;;
40204;SDS011;26963;42.666;23.366;2023-04-24T03:22:18;9.48;;;6.45;;
40204;SDS011;26963;42.666;23.366;2023-04-24T03:24:44;11.32;;;7.18;;
40204;SDS011;26963;42.666;23.366;2023-04-24T03:27:09;9.70;;;6.60;;
40204;SDS011;26963;42.666;23.366;2023-04-24T03:29:35;11.02;;;6.90;;
40204;SDS011;26963;42.666;23.366;2023-04-24T03:32:00;11.77;;;6.68;;
40204;SDS011;26963;42.666;23.366;2023-04-24T03:34:26;12.25;;;7.38;;
40204;SDS011;26963;42.666;23.366;2023-04-24T03:36:51;11.68;;;7.60;;
40204;SDS011;26963;42.666;23.366;2023-04-24T03:39:17;13.75;;;7.20;;
40204;SDS011;26963;42.666;23.366;2023-04-24T03:41:43;10.55;;;7.25;;
40204;SDS011;26963;42.666;23.366;2023-04-24T03:44:08;16.80;;;8.68;;
40204;SDS011;26963;42.666;23.366;2023-04-24T03:46:34;11.05;;;7.60;;
40204;SDS011;26963;42.666;23.366;2023-04-24T03:48:59;10.77;;;7.00;;
40204;SDS011;26963;42.666;23.366;2023-04-24T03:51:25;12.05;;;8.27;;
40204;SDS011;26963;42.666;23.366;2023-04-24T03:53:55;10.93;;;7.43;;
40204;SDS011;26963;42.666;23.366;2023-04-24T03:56:21;13.02;;;7.15;;
40204;SDS011;26963;42.666;23.366;2023-04-24T03:58:46;14.43;;;7.15;;
40204;SDS011;26963;42.666;23.366;2023-04-24T04:01:12;12.50;;;7.38;;
40204;SDS011;26963;42.666;23.366;2023-04-24T04:03:38;10.35;;;7.30;;
40204;SDS011;26963;42.666;23.366;2023-04-24T04:06:04;13.40;;;7.70;;
40204;SDS011;26963;42.666;23.366;2023-04-24T04:08:29;9.48;;;6.93;;
40204;SDS011;26963;42.666;23.366;2023-04-24T04:10:55;13.00;;;8.20;;
40204;SDS011;26963;42.666;23.366;2023-04-24T04:13:21;16.42;;;8.63;;
40204;SDS011;26963;42.666;23.366;2023-04-24T04:15:46;14.27;;;8.45;;
40204;SDS011;26963;42.666;23.366;2023-04-24T04:18:12;14.30;;;7.68;;
40204;SDS011;26963;42.666;23.366;2023-04-24T04:20:37;14.55;;;9.63;;
40204;SDS011;26963;42.666;23.366;2023-04-24T04:23:03;12.63;;;7.85;;
40204;SDS011;26963;42.666;23.366;2023-04-24T04:25:28;13.27;;;6.57;;
40204;SDS011;26963;42.666;23.366;2023-04-24T04:27:54;14.65;;;7.35;;
40204;SDS011;26963;42.666;23.366;2023-04-24T04:30:20;14.02;;;8.40;;
40204;SDS011;26963;42.666;23.366;2023-04-24T04:32:46;12.93;;;8.52;;
40204;SDS011;26963;42.666;23.366;2023-04-24T04:35:11;11.60;;;7.45;;
40204;SDS011;26963;42.666;23.366;2023-04-24T04:37:37;15.13;;;6.28;;
40204;SDS011;26963;42.666;23.366;2023-04-24T04:40:03;8.23;;;6.53;;
40204;SDS011;26963;42.666;23.366;2023-04-24T04:42:32;10.75;;;7.25;;
40204;SDS011;26963;42.666;23.366;2023-04-24T04:44:59;12.13;;;7.25;;
40204;SDS011;26963;42.666;23.366;2023-04-24T04:47:25;11.73;;;8.05;;
40204;SDS011;26963;42.666;23.366;2023-04-24T04:49:52;15.82;;;8.65;;
40204;SDS011;26963;42.666;23.366;2023-04-24T04:52:18;9.70;;;6.35;;
40204;SDS011;26963;42.666;23.366;2023-04-24T04:54:44;12.77;;;7.38;;
40204;SDS011;26963;42.666;23.366;2023-04-24T04:57:10;7.95;;;5.43;;
40204;SDS011;26963;42.666;23.366;2023-04-24T04:59:38;12.40;;;6.80;;
40204;SDS011;26963;42.666;23.366;2023-04-24T05:02:04;15.10;;;6.70;;
40204;SDS011;26963;42.666;23.366;2023-04-24T05:04:29;10.23;;;6.10;;
40204;SDS011;26963;42.666;23.366;2023-04-24T05:06:55;12.30;;;6.85;;
40204;SDS011;26963;42.666;23.366;2023-04-24T05:09:21;11.13;;;7.15;;
40204;SDS011;26963;42.666;23.366;2023-04-24T05:11:47;9.57;;;6.95;;
40204;SDS011;26963;42.666;23.366;2023-04-24T05:14:12;11.82;;;6.97;;
40204;SDS011;26963;42.666;23.366;2023-04-24T05:16:38;9.57;;;5.63;;
40204;SDS011;26963;42.666;23.366;2023-04-24T05:19:05;13.18;;;6.70;;
40204;SDS011;26963;42.666;23.366;2023-04-24T05:21:31;10.68;;;6.28;;
40204;SDS011;26963;42.666;23.366;2023-04-24T05:24:00;14.20;;;5.90;;
40204;SDS011;26963;42.666;23.366;2023-04-24T05:26:25;11.80;;;6.40;;
40204;SDS011;26963;42.666;23.366;2023-04-24T05:28:54;9.80;;;5.75;;
40204;SDS011;26963;42.666;23.366;2023-04-24T05:31:19;10.85;;;6.20;;
40204;SDS011;26963;42.666;23.366;2023-04-24T05:33:45;12.80;;;6.45;;
40204;SDS011;26963;42.666;23.366;2023-04-24T05:36:10;9.45;;;6.15;;
40204;SDS011;26963;42.666;23.366;2023-04-24T05:38:36;13.18;;;6.07;;
40204;SDS011;26963;42.666;23.366;2023-04-24T05:41:01;8.60;;;6.60;;
40204;SDS011;26963;42.666;23.366;2023-04-24T05:43:30;11.40;;;6.00;;
40204;SDS011;26963;42.666;23.366;2023-04-24T05:45:55;9.32;;;6.38;;
40204;SDS011;26963;42.666;23.366;2023-04-24T05:48:21;12.02;;;7.28;;
40204;SDS011;26963;42.666;23.366;2023-04-24T05:50:49;9.70;;;6.30;;
40204;SDS011;26963;42.666;23.366;2023-04-24T05:53:20;13.52;;;8.10;;
40204;SDS011;26963;42.666;23.366;2023-04-24T05:55:46;12.38;;;8.15;;
40204;SDS011;26963;42.666;23.366;2023-04-24T05:58:12;12.60;;;8.93;;
40204;SDS011;26963;42.666;23.366;2023-04-24T06:00:38;13.38;;;8.70;;
40204;SDS011;26963;42.666;23.366;2023-04-24T06:03:06;13.27;;;7.78;;
40204;SDS011;26963;42.666;23.366;2023-04-24T06:05:35;18.25;;;8.40;;
40204;SDS011;26963;42.666;23.366;2023-04-24T06:08:01;14.38;;;8.65;;
40204;SDS011;26963;42.666;23.366;2023-04-24T06:10:26;19.30;;;10.45;;
40204;SDS011;26963;42.666;23.366;2023-04-24T06:12:54;18.95;;;7.88;;
40204;SDS011;26963;42.666;23.366;2023-04-24T06:15:27;11.55;;;7.97;;
40204;SDS011;26963;42.666;23.366;2023-04-24T06:17:56;13.98;;;8.35;;
40204;SDS011;26963;42.666;23.366;2023-04-24T06:20:22;11.50;;;7.68;;
40204;SDS011;26963;42.666;23.366;2023-04-24T06:23:06;11.25;;;7.78;;
40204;SDS011;26963;42.666;23.366;2023-04-24T06:25:32;13.93;;;8.82;;
40204;SDS011;26963;42.666;23.366;2023-04-24T06:27:57;14.48;;;8.18;;
40204;SDS011;26963;42.666;23.366;2023-04-24T06:30:23;13.52;;;7.85;;
40204;SDS011;26963;42.666;23.366;2023-04-24T06:32:49;16.35;;;8.10;;
40204;SDS011;26963;42.666;23.366;2023-04-24T06:35:15;9.95;;;7.50;;
40204;SDS011;26963;42.666;23.366;2023-04-24T06:37:41;11.38;;;7.00;;
40204;SDS011;26963;42.666;23.366;2023-04-24T06:40:07;10.18;;;7.28;;
40204;SDS011;26963;42.666;23.366;2023-04-24T06:42:33;10.50;;;7.75;;
40204;SDS011;26963;42.666;23.366;2023-04-24T06:45:00;9.75;;;6.85;;
40204;SDS011;26963;42.666;23.366;2023-04-24T06:47:26;11.63;;;7.13;;
40204;SDS011;26963;42.666;23.366;2023-04-24T06:49:51;11.38;;;7.28;;
40204;SDS011;26963;42.666;23.366;2023-04-24T06:52:17;9.82;;;7.05;;
40204;SDS011;26963;42.666;23.366;2023-04-24T06:54:43;13.07;;;7.70;;
40204;SDS011;26963;42.666;23.366;2023-04-24T06:57:09;14.68;;;7.75;;
40204;SDS011;26963;42.666;23.366;2023-04-24T06:59:35;13.38;;;7.15;;
40204;SDS011;26963;42.666;23.366;2023-04-24T07:02:01;10.98;;;7.22;;
40204;SDS011;26963;42.666;23.366;2023-04-24T07:04:28;12.40;;;7.32;;
40204;SDS011;26963;42.666;23.366;2023-04-24T07:06:53;12.48;;;7.43;;
40204;SDS011;26963;42.666;23.366;2023-04-24T07:09:21;10.25;;;7.15;;
40204;SDS011;26963;42.666;23.366;2023-04-24T07:11:49;9.75;;;6.63;;
40204;SDS011;26963;42.666;23.366;2023-04-24T07:14:15;10.70;;;7.35;;
40204;SDS011;26963;42.666;23.366;2023-04-24T07:16:41;12.57;;;7.32;;
40204;SDS011;26963;42.666;23.366;2023-04-24T07:19:07;9.88;;;6.97;;
40204;SDS011;26963;42.666;23.366;2023-04-24T07:21:33;12.45;;;7.63;;
40204;SDS011;26963;42.666;23.366;2023-04-24T07:23:58;10.30;;;6.43;;
40204;SDS011;26963;42.666;23.366;2023-04-24T07:26:24;9.68;;;6.95;;
40204;SDS011;26963;42.666;23.366;2023-04-24T07:28:50;10.82;;;7.20;;
40204;SDS011;26963;42.666;23.366;2023-04-24T07:31:16;11.15;;;7.63;;
40204;SDS011;26963;42.666;23.366;2023-04-24T07:33:41;14.10;;;7.20;;
40204;SDS011;26963;42.666;23.366;2023-04-24T07:36:07;9.05;;;6.25;;
40204;SDS011;26963;42.666;23.366;2023-04-24T07:38:32;9.15;;;6.57;;
40204;SDS011;26963;42.666;23.366;2023-04-24T07:40:58;12.60;;;6.55;;
40204;SDS011;26963;42.666;23.366;2023-04-24T07:43:24;9.52;;;5.78;;
40204;SDS011;26963;42.666;23.366;2023-04-24T07:45:52;8.88;;;5.80;;
40204;SDS011;26963;42.666;23.366;2023-04-24T07:48:18;8.23;;;5.38;;
40204;SDS011;26963;42.666;23.366;2023-04-24T07:50:46;7.50;;;4.93;;
40204;SDS011;26963;42.666;23.366;2023-04-24T07:53:12;8.05;;;5.28;;
40204;SDS011;26963;42.666;23.366;2023-04-24T07:55:37;5.60;;;4.60;;
40204;SDS011;26963;42.666;23.366;2023-04-24T07:58:03;10.23;;;5.38;;
40204;SDS011;26963;42.666;23.366;2023-04-24T08:00:29;10.60;;;5.47;;
40204;SDS011;26963;42.666;23.366;2023-04-24T08:02:55;8.68;;;5.32;;
40204;SDS011;26963;42.666;23.366;2023-04-24T08:05:20;11.38;;;5.88;;
40204;SDS011;26963;42.666;23.366;2023-04-24T08:07:46;8.90;;;5.10;;
40204;SDS011;26963;42.666;23.366;2023-04-24T08:10:14;9.70;;;4.97;;
40204;SDS011;26963;42.666;23.366;2023-04-24T08:12:40;9.20;;;4.80;;
40204;SDS011;26963;42.666;23.366;2023-04-24T08:15:06;7.85;;;5.00;;
40204;SDS011;26963;42.666;23.366;2023-04-24T08:17:33;9.68;;;5.25;;
40204;SDS011;26963;42.666;23.366;2023-04-24T08:19:59;10.52;;;5.40;;
40204;SDS011;26963;42.666;23.366;2023-04-24T08:22:27;10.20;;;5.55;;
40204;SDS011;26963;42.666;23.366;2023-04-24T08:24:55;10.07;;;4.85;;
40204;SDS011;26963;42.666;23.366;2023-04-24T08:27:25;10.48;;;5.47;;
40204;SDS011;26963;42.666;23.366;2023-04-24T08:29:52;9.85;;;5.10;;
40204;SDS011;26963;42.666;23.366;2023-04-24T08:32:18;8.43;;;4.72;;
40204;SDS011;26963;42.666;23.366;2023-04-24T08:34:44;11.32;;;5.20;;
40204;SDS011;26963;42.666;23.366;2023-04-24T08:37:09;10.77;;;5.25;;
40204;SDS011;26963;42.666;23.366;2023-04-24T08:39:36;13.10;;;4.60;;
40204;SDS011;26963;42.666;23.366;2023-04-24T08:42:01;11.02;;;4.82;;
40204;SDS011;26963;42.666;23.366;2023-04-24T08:44:34;10.07;;;4.50;;
40204;SDS011;26963;42.666;23.366;2023-04-24T08:47:03;7.07;;;4.28;;
40204;SDS011;26963;42.666;23.366;2023-04-24T08:49:30;7.85;;;4.00;;
40204;SDS011;26963;42.666;23.366;2023-04-24T08:51:56;7.85;;;4.43;;
40204;SDS011;26963;42.666;23.366;2023-04-24T08:54:25;9.68;;;3.88;;
40204;SDS011;26963;42.666;23.366;2023-04-24T08:56:50;8.52;;;4.40;;
40204;SDS011;26963;42.666;23.366;2023-04-24T08:59:19;11.27;;;4.90;;
40204;SDS011;26963;42.666;23.366;2023-04-24T09:01:47;8.50;;;4.43;;
40204;SDS011;26963;42.666;23.366;2023-04-24T09:04:15;9.23;;;4.57;;
40204;SDS011;26963;42.666;23.366;2023-04-24T09:06:45;7.88;;;4.78;;
40204;SDS011;26963;42.666;23.366;2023-04-24T09:09:10;4.50;;;3.83;;
40204;SDS011;26963;42.666;23.366;2023-04-24T09:11:37;6.40;;;4.03;;
40204;SDS011;26963;42.666;23.366;2023-04-24T09:14:02;10.20;;;4.70;;
40204;SDS011;26963;42.666;23.366;2023-04-24T09:16:29;10.70;;;4.70;;
40204;SDS011;26963;42.666;23.366;2023-04-24T09:18:54;12.75;;;4.47;;
40204;SDS011;26963;42.666;23.366;2023-04-24T09:21:21;6.60;;;4.82;;
40204;SDS011;26963;42.666;23.366;2023-04-24T09:24:00;7.25;;;4.68;;
40204;SDS011;26963;42.666;23.366;2023-04-24T09:28:56;10.82;;;5.22;;
40204;SDS011;26963;42.666;23.366;2023-04-24T09:31:22;8.10;;;4.38;;
40204;SDS011;26963;42.666;23.366;2023-04-24T09:36:32;11.57;;;4.25;;
40204;SDS011;26963;42.666;23.366;2023-04-24T09:39:03;7.47;;;4.18;;
40204;SDS011;26963;42.666;23.366;2023-04-24T09:41:31;7.18;;;4.10;;
40204;SDS011;26963;42.666;23.366;2023-04-24T09:44:10;8.50;;;4.05;;
40204;SDS011;26963;42.666;23.366;2023-04-24T09:46:37;6.25;;;4.20;;
40204;SDS011;26963;42.666;23.366;2023-04-24T09:49:10;6.85;;;4.30;;
40204;SDS011;26963;42.666;23.366;2023-04-24T09:51:40;6.10;;;4.10;;
40204;SDS011;26963;42.666;23.366;2023-04-24T09:56:58;7.90;;;4.43;;
40204;SDS011;26963;42.666;23.366;2023-04-24T09:59:25;9.30;;;4.72;;
40204;SDS011;26963;42.666;23.366;2023-04-24T10:01:51;11.13;;;5.00;;
40204;SDS011;26963;42.666;23.366;2023-04-24T10:04:24;11.57;;;4.95;;
40204;SDS011;26963;42.666;23.366;2023-04-24T10:06:52;9.02;;;4.45;;
40204;SDS011;26963;42.666;23.366;2023-04-24T10:09:21;7.70;;;4.20;;
40204;SDS011;26963;42.666;23.366;2023-04-24T10:11:50;7.00;;;4.65;;
40204;SDS011;26963;42.666;23.366;2023-04-24T10:14:22;6.32;;;4.53;;
40204;SDS011;26963;42.666;23.366;2023-04-24T10:16:49;6.90;;;4.70;;
40204;SDS011;26963;42.666;23.366;2023-04-24T10:19:18;7.60;;;3.92;;
40204;SDS011;26963;42.666;23.366;2023-04-24T10:21:44;7.80;;;4.60;;
40204;SDS011;26963;42.666;23.366;2023-04-24T10:24:16;9.10;;;4.90;;
40204;SDS011;26963;42.666;23.366;2023-04-24T10:26:43;9.10;;;4.07;;
40204;SDS011;26963;42.666;23.366;2023-04-24T10:29:11;8.35;;;4.43;;
40204;SDS011;26963;42.666;23.366;2023-04-24T10:31:38;6.43;;;4.65;;
40204;SDS011;26963;42.666;23.366;2023-04-24T10:34:05;7.10;;;4.55;;
40204;SDS011;26963;42.666;23.366;2023-04-24T10:36:32;11.02;;;5.00;;
40204;SDS011;26963;42.666;23.366;2023-04-24T10:39:00;9.77;;;4.88;;
40204;SDS011;26963;42.666;23.366;2023-04-24T10:41:27;10.18;;;4.60;;
40204;SDS011;26963;42.666;23.366;2023-04-24T10:46:31;10.75;;;4.55;;
40204;SDS011;26963;42.666;23.366;2023-04-24T10:49:03;7.05;;;4.40;;
40204;SDS011;26963;42.666;23.366;2023-04-24T10:59:45;10.35;;;4.10;;
40204;SDS011;26963;42.666;23.366;2023-04-24T11:02:15;6.65;;;3.40;;
40204;SDS011;26963;42.666;23.366;2023-04-24T11:04:41;8.75;;;4.20;;
40204;SDS011;26963;42.666;23.366;2023-04-24T11:07:11;6.63;;;3.47;;
40204;SDS011;26963;42.666;23.366;2023-04-24T11:09:37;6.60;;;4.13;;
40204;SDS011;26963;42.666;23.366;2023-04-24T11:12:09;6.78;;;3.92;;
40204;SDS011;26963;42.666;23.366;2023-04-24T11:17:38;5.43;;;3.70;;
40204;SDS011;26963;42.666;23.366;2023-04-24T11:20:08;7.68;;;6.13;;
40204;SDS011;26963;42.666;23.366;2023-04-24T11:22:36;7.72;;;3.90;;
40204;SDS011;26963;42.666;23.366;2023-04-24T11:25:04;6.32;;;3.28;;
40204;SDS011;26963;42.666;23.366;2023-04-24T11:27:39;6.13;;;3.38;;
40204;SDS011;26963;42.666;23.366;2023-04-24T11:30:07;7.25;;;4.07;;
40204;SDS011;26963;42.666;23.366;2023-04-24T11:37:38;5.78;;;3.65;;
40204;SDS011;26963;42.666;23.366;2023-04-24T11:40:06;6.47;;;4.00;;
40204;SDS011;26963;42.666;23.366;2023-04-24T11:42:37;4.63;;;3.67;;
40204;SDS011;26963;42.666;23.366;2023-04-24T11:45:09;5.30;;;3.50;;
40204;SDS011;26963;42.666;23.366;2023-04-24T11:47:36;6.05;;;3.50;;
40204;SDS011;26963;42.666;23.366;2023-04-24T11:50:02;4.90;;;2.97;;
40204;SDS011;26963;42.666;23.366;2023-04-24T11:52:30;6.72;;;3.33;;
40204;SDS011;26963;42.666;23.366;2023-04-24T11:54:56;6.80;;;3.42;;
40204;SDS011;26963;42.666;23.366;2023-04-24T11:57:22;7.20;;;5.13;;
40204;SDS011;26963;42.666;23.366;2023-04-24T11:59:51;4.70;;;3.00;;
40204;SDS011;26963;42.666;23.366;2023-04-24T12:02:21;6.30;;;3.72;;
40204;SDS011;26963;42.666;23.366;2023-04-24T12:04:50;4.35;;;3.55;;
40204;SDS011;26963;42.666;23.366;2023-04-24T12:07:16;4.32;;;2.97;;
40204;SDS011;26963;42.666;23.366;2023-04-24T12:09:46;4.50;;;3.20;;
40204;SDS011;26963;42.666;23.366;2023-04-24T12:12:15;4.75;;;3.45;;
40204;SDS011;26963;42.666;23.366;2023-04-24T12:15:00;4.65;;;3.25;;
40204;SDS011;26963;42.666;23.366;2023-04-24T12:17:27;5.65;;;3.40;;
40204;SDS011;26963;42.666;23.366;2023-04-24T12:22:26;3.83;;;3.13;;
40204;SDS011;26963;42.666;23.366;2023-04-24T12:24:59;4.72;;;3.50;;
40204;SDS011;26963;42.666;23.366;2023-04-24T12:27:33;4.57;;;3.50;;
40204;SDS011;26963;42.666;23.366;2023-04-24T12:29:59;4.85;;;3.65;;
40204;SDS011;26963;42.666;23.366;2023-04-24T12:32:27;4.32;;;3.00;;
40204;SDS011;26963;42.666;23.366;2023-04-24T12:34:58;4.63;;;3.20;;
40204;SDS011;26963;42.666;23.366;2023-04-24T12:37:24;4.03;;;2.97;;
40204;SDS011;26963;42.666;23.366;2023-04-24T12:40:06;4.32;;;3.22;;
40204;SDS011;26963;42.666;23.366;2023-04-24T12:42:34;6.60;;;3.33;;
40204;SDS011;26963;42.666;23.366;2023-04-24T12:45:04;9.40;;;4.07;;
40204;SDS011;26963;42.666;23.366;2023-04-24T12:47:32;4.57;;;3.60;;
40204;SDS011;26963;42.666;23.366;2023-04-24T12:49:59;6.28;;;4.25;;
40204;SDS011;26963;42.666;23.366;2023-04-24T12:52:30;7.10;;;4.43;;
40204;SDS011;26963;42.666;23.366;2023-04-24T12:54:57;5.10;;;4.25;;
40204;SDS011;26963;42.666;23.366;2023-04-24T12:57:27;6.13;;;3.60;;
40204;SDS011;26963;42.666;23.366;2023-04-24T12:59:56;5.10;;;3.80;;
40204;SDS011;26963;42.666;23.366;2023-04-24T13:02:27;5.38;;;3.80;;
40204;SDS011;26963;42.666;23.366;2023-04-24T13:04:57;5.25;;;3.80;;
40204;SDS011;26963;42.666;23.366;2023-04-24T13:07:26;5.85;;;3.35;;
40204;SDS011;26963;42.666;23.366;2023-04-24T13:09:55;5.57;;;3.70;;
40204;SDS011;26963;42.666;23.366;2023-04-24T13:12:25;6.60;;;4.40;;
40204;SDS011;26963;42.666;23.366;2023-04-24T13:14:51;7.13;;;4.07;;
40204;SDS011;26963;42.666;23.366;2023-04-24T13:17:17;5.28;;;3.72;;
40204;SDS011;26963;42.666;23.366;2023-04-24T13:19:43;8.45;;;4.18;;
40204;SDS011;26963;42.666;23.366;2023-04-24T13:22:10;4.80;;;3.90;;
40204;SDS011;26963;42.666;23.366;2023-04-24T13:24:37;5.18;;;3.80;;
40204;SDS011;26963;42.666;23.366;2023-04-24T13:27:03;4.55;;;3.67;;
40204;SDS011;26963;42.666;23.366;2023-04-24T13:29:29;6.50;;;3.67;;
40204;SDS011;26963;42.666;23.366;2023-04-24T13:31:54;6.00;;;4.10;;
40204;SDS011;26963;42.666;23.366;2023-04-24T13:34:21;6.57;;;4.20;;
40204;SDS011;26963;42.666;23.366;2023-04-24T13:36:47;5.03;;;3.97;;
40204;SDS011;26963;42.666;23.366;2023-04-24T13:39:12;6.70;;;4.63;;
40204;SDS011;26963;42.666;23.366;2023-04-24T13:41:38;7.30;;;4.35;;
40204;SDS011;26963;42.666;23.366;2023-04-24T13:44:05;5.47;;;4.20;;
40204;SDS011;26963;42.666;23.366;2023-04-24T13:46:31;8.77;;;4.40;;
40204;SDS011;26963;42.666;23.366;2023-04-24T13:49:01;6.30;;;4.18;;
40204;SDS011;26963;42.666;23.366;2023-04-24T13:51:29;5.70;;;4.13;;
40204;SDS011;26963;42.666;23.366;2023-04-24T13:53:55;8.20;;;4.30;;
40204;SDS011;26963;42.666;23.366;2023-04-24T13:56:21;6.82;;;3.80;;
40204;SDS011;26963;42.666;23.366;2023-04-24T13:58:47;6.85;;;3.83;;
40204;SDS011;26963;42.666;23.366;2023-04-24T14:01:13;5.70;;;4.22;;
40204;SDS011;26963;42.666;23.366;2023-04-24T14:03:40;5.72;;;4.32;;
40204;SDS011;26963;42.666;23.366;2023-04-24T14:06:08;6.10;;;4.47;;
40204;SDS011;26963;42.666;23.366;2023-04-24T14:08:33;8.38;;;4.15;;
40204;SDS011;26963;42.666;23.366;2023-04-24T14:10:59;6.13;;;4.07;;
40204;SDS011;26963;42.666;23.366;2023-04-24T14:13:25;7.75;;;4.30;;
40204;SDS011;26963;42.666;23.366;2023-04-24T14:15:51;7.22;;;4.13;;
40204;SDS011;26963;42.666;23.366;2023-04-24T14:18:17;9.25;;;4.15;;
40204;SDS011;26963;42.666;23.366;2023-04-24T14:20:43;5.88;;;3.60;;
40204;SDS011;26963;42.666;23.366;2023-04-24T14:23:09;5.80;;;4.22;;
40204;SDS011;26963;42.666;23.366;2023-04-24T14:25:35;8.48;;;3.88;;
40204;SDS011;26963;42.666;23.366;2023-04-24T14:28:01;8.73;;;4.13;;
40204;SDS011;26963;42.666;23.366;2023-04-24T14:30:26;8.35;;;3.10;;
40204;SDS011;26963;42.666;23.366;2023-04-24T14:32:52;5.25;;;3.05;;
40204;SDS011;26963;42.666;23.366;2023-04-24T14:35:17;5.45;;;3.60;;
40204;SDS011;26963;42.666;23.366;2023-04-24T14:37:43;4.97;;;3.40;;
40204;SDS011;26963;42.666;23.366;2023-04-24T14:40:08;4.93;;;3.28;;
40204;SDS011;26963;42.666;23.366;2023-04-24T14:42:34;4.38;;;3.35;;
40204;SDS011;26963;42.666;23.366;2023-04-24T14:45:01;4.10;;;3.45;;
40204;SDS011;26963;42.666;23.366;2023-04-24T14:47:26;5.53;;;3.60;;
40204;SDS011;26963;42.666;23.366;2023-04-24T14:49:55;5.75;;;3.13;;
40204;SDS011;26963;42.666;23.366;2023-04-24T14:52:21;5.05;;;3.33;;
40204;SDS011;26963;42.666;23.366;2023-04-24T14:54:46;4.88;;;3.30;;